Flight Track Log - Related Links

Times and Time Zones

All times are in EDT time to prevent confusion due to time zone crossing. See the N711TA flight status page for this flight to view local times or setup timezone preferences in your user account.

Time Position Orientation Groundspeed Altitude Reporting Facility
EDT Latitude Longitude Course Direction KTS MPH feet Rate Location/Type
Thu 06:02:01 PM 27.9000 -82.6833 221° Southwest 90 104 400  Level Tampa TRACON
Thu 06:02:55 PM 27.8833 -82.7000 202° Southwest 93 107 1,500 1,096 Climbing Tampa TRACON
Thu 06:03:56 PM 27.8667 -82.7000 180° South 94 108 2,500 744 Climbing Tampa TRACON
Thu 06:04:56 PM 27.8333 -82.7000 180° South 111 128 3,000 250 Climbing Tampa TRACON
Thu 06:05:56 PM 27.8000 -82.7000 180° South 140 161 3,000 432 Level Tampa TRACON
Thu 06:07:01 PM 27.7500 -82.7000 180° South 113 130 3,900 810 Climbing Tampa TRACON
Thu 06:08:02 PM 27.7333 -82.6833 138° Southeast 110 127 4,700 645 Climbing Tampa TRACON
Thu 06:09:02 PM 27.7167 -82.6500 119° Southeast 112 129 5,200 650 Climbing Tampa TRACON
Thu 06:10:02 PM 27.7167 -82.6167 90° East 110 127 6,000 750 Climbing Tampa TRACON
Thu 06:11:02 PM 27.7167 -82.5833 90° East 108 124 6,700 579 Climbing Tampa TRACON
Thu 06:11:56 PM 27.7167 -82.5500 90° East 110 127 7,100 150 Climbing Tampa TRACON
Thu 06:13:02 PM 27.7167 -82.5167 90° East 147 169 7,000 -48 Descending Tampa TRACON
Thu 06:14:02 PM 27.7167 -82.4667 90° East 155 178 7,000 38 Level Tampa TRACON
Thu 06:15:41 PM 27.7039 -82.3892 101° East 216 249 7,100  Climbing Miami Center
Thu 06:16:41 PM 27.7017 -82.3375 93° East 175 201 7,000  Descending Miami Center
Thu 06:17:41 PM 27.6972 -82.2903 96° East 158 182 7,100 50 Climbing Miami Center
Thu 06:18:41 PM 27.6953 -82.2339 92° East 153 176 7,100  Level Miami Center
Thu 06:19:41 PM 27.6758 -82.1931 118° Southeast 153 176 7,100  Level Miami Center
Thu 06:20:41 PM 27.6500 -82.1544 127° Southeast 153 176 7,100  Level Miami Center
Thu 06:21:41 PM 27.6264 -82.1183 126° Southeast 158 182 7,100  Level Miami Center
Thu 06:22:41 PM 27.5967 -82.0747 128° Southeast 163 188 7,100 -50 Level Miami Center
Thu 06:23:41 PM 27.5753 -82.0317 119° Southeast 163 188 7,000 -100 Descending Miami Center
Thu 06:24:41 PM 27.5517 -81.9883 122° Southeast 158 182 6,900  Descending Miami Center
Thu 06:25:41 PM 27.5303 -81.9500 122° Southeast 153 176 7,000 50 Climbing Miami Center
Thu 06:26:41 PM 27.5067 -81.9092 123° Southeast 153 176 7,000 50 Level Miami Center
Thu 06:27:41 PM 27.4828 -81.8731 127° Southeast 153 176 7,100 50 Climbing Miami Center
Thu 06:28:41 PM 27.4569 -81.8322 125° Southeast 153 176 7,100 350 Level Miami Center
Thu 06:29:41 PM 27.4372 -81.7986 123° Southeast 153 176 7,800 650 Climbing Miami Center
Thu 06:30:41 PM 27.4197 -81.7675 122° Southeast 141 162 8,400 600 Climbing Miami Center
Thu 06:31:41 PM 27.4019 -81.7386 125° Southeast 130 150 9,000 350 Climbing Miami Center
Thu 06:32:41 PM 27.3822 -81.7028 122° Southeast 123 142 9,100 50 Climbing Miami Center
Thu 06:33:41 PM 27.3586 -81.6619 123° Southeast 135 155 9,100  Level Miami Center
Thu 06:34:41 PM 27.3347 -81.6211 123° Southeast 146 168 9,100  Level Miami Center
Thu 06:35:41 PM 27.3153 -81.5808 119° Southeast 151 174 9,100  Level Miami Center
Thu 06:36:41 PM 27.2914 -81.5400 123° Southeast 151 174 9,100  Level Miami Center
Thu 06:37:41 PM 27.2697 -81.5017 122° Southeast 151 174 9,100  Level Miami Center
Thu 06:38:41 PM 27.2461 -81.4611 123° Southeast 151 174 9,100  Level Miami Center
Thu 06:39:41 PM 27.2264 -81.4206 119° Southeast 151 174 9,100  Level Miami Center
Thu 06:40:41 PM 27.1983 -81.3844 131° Southeast 151 174 9,100 -50 Level Miami Center
Thu 06:41:41 PM 27.1744 -81.3461 125° Southeast 151 174 9,000 -50 Descending Miami Center
Thu 06:42:41 PM 27.1506 -81.3081 125° Southeast 156 180 9,000  Level Miami Center
Thu 06:43:41 PM 27.1267 -81.2697 125° Southeast 156 180 9,000 50 Level Miami Center
Thu 06:44:41 PM 27.1069 -81.2317 120° Southeast 150 173 9,100 50 Climbing Miami Center
Thu 06:45:41 PM 27.0811 -81.1864 123° Southeast 150 173 9,100 -50 Level Miami Center
Thu 06:46:41 PM 27.0553 -81.1481 127° Southeast 150 173 9,000 -50 Descending Miami Center
Thu 06:47:41 PM 27.0292 -81.1100 128° Southeast 150 173 9,000  Level Miami Center
Thu 06:48:41 PM 27.0094 -81.0672 117° Southeast 150 173 9,000  Level Miami Center
Thu 06:49:41 PM 26.9878 -81.0314 124° Southeast 150 173 9,000 50 Level Miami Center
Thu 06:50:41 PM 26.9597 -80.9886 126° Southeast 150 173 9,100  Climbing Miami Center
Thu 06:51:41 PM 26.9358 -80.9481 123° Southeast 150 173 9,000 -50 Descending Miami Center
Thu 06:52:41 PM 26.9119 -80.9075 123° Southeast 150 173 9,000 -200 Level Miami Center
Thu 06:53:41 PM 26.8878 -80.8694 125° Southeast 160 184 8,600 -400 Descending Miami Center
Thu 06:54:41 PM 26.8597 -80.8267 126° Southeast 166 191 8,200 -650 Descending Miami Center
Thu 06:55:41 PM 26.8361 -80.7722 116° Southeast 171 197 7,300 -800 Descending Miami Center
Thu 06:56:41 PM 26.8208 -80.7231 109° East 171 197 6,600 -500 Descending Miami Center
Thu 06:57:41 PM 26.7967 -80.6850 125° Southeast 166 191 6,300 -250 Descending Miami Center
Thu 06:58:41 PM 26.7644 -80.6375 127° Southeast 173 199 6,100 -200 Descending Miami Center
Thu 06:59:41 PM 26.7447 -80.5925 116° Southeast 166 191 5,900 -200 Descending Miami Center
Thu 07:01:00 PM 26.7342 -80.5376 102° East  Level FlightAware Approximate
Thu 07:08:00 PM 26.6465 -80.2561 110° East  Level FlightAware Approximate
Thu 07:09:00 PM 26.6332 -80.2161 110° East  Level FlightAware Approximate
Thu 07:10:00 PM 26.6199 -80.1762 110° East  Level FlightAware Approximate
Thu 07:11:00 PM 26.6049 -80.1371 114° Southeast  Level FlightAware Approximate
Thu 07:12:00 PM 26.5893 -80.0983 114° Southeast  Level FlightAware Approximate
Thu 07:13:00 PM 26.5833 -80.0833 114° Southeast  Level FlightAware Approximate
Thu 07:14:00 PM 26.5931 -80.0851 318° Northwest  Level Estimated
Thu 07:15:00 PM 26.5931 -80.0851 171° South  Level Estimated

Login

Don't have an account? Register now (free) for customized features, flight alerts, and more!